createdAt,value
2022-10-14T00:01:24.290Z,18.40
2022-10-14T00:03:51.768Z,18.40
2022-10-14T00:06:23.323Z,18.30
2022-10-14T00:08:50.526Z,18.30
2022-10-14T00:11:20.638Z,18.30
2022-10-14T00:13:48.014Z,18.20
2022-10-14T00:16:27.384Z,18.20
2022-10-14T00:18:54.434Z,18.20
2022-10-14T00:21:22.256Z,18.20
2022-10-14T00:23:49.372Z,18.20
2022-10-14T00:26:19.496Z,18.20
2022-10-14T00:28:49.168Z,18.30
2022-10-14T00:31:17.245Z,18.30
2022-10-14T00:33:48.643Z,18.30
2022-10-14T00:36:17.507Z,18.30
2022-10-14T00:38:47.784Z,18.30
2022-10-14T00:41:26.657Z,18.20
2022-10-14T00:44:04.243Z,18.20
2022-10-14T00:46:37.904Z,18.20
2022-10-14T00:49:18.795Z,18.20
2022-10-14T00:52:02.766Z,18.10
2022-10-14T00:54:44.956Z,18.10
2022-10-14T00:57:12.685Z,18.10
2022-10-14T00:59:39.915Z,18.10
2022-10-14T01:02:07.184Z,18.10
2022-10-14T01:04:37.238Z,18.10
2022-10-14T01:07:37.269Z,18.10
2022-10-14T01:10:09.683Z,18.10
2022-10-14T01:12:58.482Z,18.10
2022-10-14T01:15:41.257Z,18.10
2022-10-14T01:18:27.800Z,18.00
2022-10-14T01:21:21.507Z,18.00
2022-10-14T01:23:48.798Z,17.90
2022-10-14T01:26:18.595Z,17.90
2022-10-14T01:29:17.571Z,18.00
2022-10-14T01:31:57.844Z,17.90
2022-10-14T01:34:33.443Z,18.00
2022-10-14T01:37:09.263Z,17.90
2022-10-14T01:39:47.407Z,17.90
2022-10-14T01:42:24.139Z,17.90
2022-10-14T01:44:57.468Z,17.90
2022-10-14T01:47:43.898Z,17.80
2022-10-14T01:50:18.380Z,17.90
2022-10-14T01:53:01.752Z,17.80
2022-10-14T01:55:35.226Z,17.80
2022-10-14T01:58:03.962Z,17.80
2022-10-14T02:00:31.588Z,17.80
2022-10-14T02:03:02.387Z,17.80
2022-10-14T02:05:52.699Z,17.80
2022-10-14T02:08:40.419Z,17.80
2022-10-14T02:11:15.687Z,17.70
2022-10-14T02:13:51.744Z,17.70
2022-10-14T02:16:30.615Z,17.60
2022-10-14T02:19:08.864Z,17.50
2022-10-14T02:22:28.370Z,17.60
2022-10-14T02:25:00.503Z,17.60
2022-10-14T02:27:29.463Z,17.50
2022-10-14T02:29:59.967Z,17.60
2022-10-14T02:32:28.412Z,17.60
2022-10-14T02:34:58.858Z,17.60
2022-10-14T02:37:28.987Z,17.60
2022-10-14T02:40:39.497Z,17.50
2022-10-14T02:43:10.132Z,17.50
2022-10-14T02:45:38.674Z,17.50
2022-10-14T02:48:06.635Z,17.50
2022-10-14T02:50:33.952Z,17.50
2022-10-14T02:53:02.375Z,17.50
2022-10-14T02:55:29.759Z,17.60
2022-10-14T02:57:56.831Z,17.50
2022-10-14T03:00:26.670Z,17.50
2022-10-14T03:02:55.348Z,17.40
2022-10-14T03:05:24.041Z,17.40
2022-10-14T03:07:51.174Z,17.50
2022-10-14T03:10:21.673Z,17.40
2022-10-14T03:12:49.092Z,17.40
2022-10-14T03:15:25.454Z,17.40
2022-10-14T03:17:53.228Z,17.40
2022-10-14T03:20:25.288Z,17.40
2022-10-14T03:22:56.517Z,17.30
2022-10-14T03:25:24.201Z,17.30
2022-10-14T03:28:05.317Z,17.40
2022-10-14T03:30:49.306Z,17.40
2022-10-14T03:33:29.840Z,17.40
2022-10-14T03:36:13.090Z,17.40
2022-10-14T03:38:45.342Z,17.50
2022-10-14T03:41:22.617Z,17.50
2022-10-14T03:43:49.792Z,17.40
2022-10-14T03:46:17.588Z,17.40
2022-10-14T03:48:44.688Z,17.30
2022-10-14T03:51:13.082Z,17.30
2022-10-14T03:53:42.452Z,17.30
2022-10-14T03:56:14.078Z,17.30
2022-10-14T03:58:41.911Z,17.20
2022-10-14T04:01:13.668Z,17.20
2022-10-14T04:04:05.911Z,17.20
2022-10-14T04:06:34.744Z,17.10
2022-10-14T04:09:05.033Z,17.10
2022-10-14T04:11:36.834Z,17.10
2022-10-14T04:14:10.588Z,17.10
2022-10-14T04:16:49.613Z,17.10
2022-10-14T04:19:17.432Z,17.20
2022-10-14T04:21:44.811Z,17.20
2022-10-14T04:24:12.751Z,17.20
2022-10-14T04:26:50.690Z,17.20
2022-10-14T04:29:25.650Z,17.20
2022-10-14T04:31:59.607Z,17.20
2022-10-14T04:34:26.972Z,17.20
2022-10-14T04:36:54.538Z,17.20
2022-10-14T04:39:31.945Z,17.20
2022-10-14T04:41:59.000Z,17.20
2022-10-14T04:44:26.296Z,17.20
2022-10-14T04:46:55.275Z,17.20
2022-10-14T04:49:25.022Z,17.20
2022-10-14T04:52:02.220Z,17.20
2022-10-14T04:54:41.303Z,17.20
2022-10-14T04:57:09.993Z,17.20
2022-10-14T04:59:38.641Z,17.20
2022-10-14T05:02:15.350Z,17.20
2022-10-14T05:04:50.060Z,17.20
2022-10-14T05:07:17.666Z,17.20
2022-10-14T05:09:49.750Z,17.20
2022-10-14T05:12:24.719Z,17.20
2022-10-14T05:14:57.177Z,17.20
2022-10-14T05:17:32.224Z,17.20
2022-10-14T05:19:59.319Z,17.20
2022-10-14T05:22:28.064Z,17.20
2022-10-14T05:24:55.887Z,17.20
2022-10-14T05:27:23.775Z,17.20
2022-10-14T05:29:51.396Z,17.10
2022-10-14T05:32:18.725Z,17.10
2022-10-14T05:34:47.026Z,17.20
2022-10-14T05:37:23.191Z,17.20
2022-10-14T05:39:52.786Z,17.20
2022-10-14T05:42:23.697Z,17.20
2022-10-14T05:44:54.098Z,17.20
2022-10-14T05:47:21.445Z,17.20
2022-10-14T05:49:52.364Z,17.20
2022-10-14T05:52:19.752Z,17.20
2022-10-14T05:54:48.227Z,17.20
2022-10-14T05:57:19.332Z,17.20
2022-10-14T05:59:47.100Z,17.20
2022-10-14T06:02:15.377Z,17.20
2022-10-14T06:04:42.589Z,17.20
2022-10-14T06:07:10.475Z,17.10
2022-10-14T06:09:39.118Z,17.20
2022-10-14T06:12:07.028Z,17.20
2022-10-14T06:14:35.577Z,17.20
2022-10-14T06:17:02.990Z,17.20
2022-10-14T06:19:33.338Z,17.20
2022-10-14T06:22:00.476Z,17.20
2022-10-14T06:24:27.638Z,17.20
2022-10-14T06:26:54.677Z,17.10
2022-10-14T06:29:26.218Z,17.10
2022-10-14T06:31:53.267Z,17.10
2022-10-14T06:34:23.056Z,17.20
2022-10-14T06:36:50.236Z,17.20
2022-10-14T06:39:17.519Z,17.30
2022-10-14T06:41:44.757Z,17.30
2022-10-14T06:44:19.912Z,17.30
2022-10-14T06:46:47.143Z,17.30
2022-10-14T06:49:14.595Z,17.30
2022-10-14T06:51:41.798Z,17.30
2022-10-14T06:54:09.203Z,17.30
2022-10-14T06:56:38.195Z,17.30
2022-10-14T06:59:05.920Z,17.40
2022-10-14T07:01:33.215Z,17.40
2022-10-14T07:04:03.386Z,17.50
2022-10-14T07:06:30.784Z,17.40
2022-10-14T07:08:57.988Z,17.50
2022-10-14T07:11:25.226Z,17.50
2022-10-14T07:13:52.472Z,17.50
2022-10-14T07:16:19.500Z,17.50
2022-10-14T07:18:46.555Z,17.50
2022-10-14T07:21:13.736Z,17.50
2022-10-14T07:23:41.227Z,17.50
2022-10-14T07:26:08.508Z,17.60
2022-10-14T07:28:35.736Z,17.60
2022-10-14T07:31:07.451Z,17.60
2022-10-14T07:36:15.102Z,17.70
2022-10-14T07:38:45.111Z,17.70
2022-10-14T07:41:19.237Z,17.70
2022-10-14T07:43:48.607Z,17.70
2022-10-14T07:46:28.207Z,17.70
2022-10-14T07:48:57.775Z,17.80
2022-10-14T07:51:26.418Z,17.80
2022-10-14T07:53:55.708Z,17.80
2022-10-14T07:56:24.098Z,17.80
2022-10-14T07:58:51.243Z,17.80
2022-10-14T08:01:18.964Z,17.90
2022-10-14T08:03:47.757Z,18.00
2022-10-14T08:06:15.313Z,18.10
2022-10-14T08:08:43.972Z,18.10
2022-10-14T08:11:15.228Z,18.10
2022-10-14T08:13:46.071Z,18.20
2022-10-14T08:16:16.640Z,18.20
2022-10-14T08:18:44.931Z,18.20
2022-10-14T08:21:12.882Z,18.30
2022-10-14T08:23:39.931Z,18.30
2022-10-14T08:26:28.854Z,18.30
2022-10-14T08:28:56.160Z,18.30
2022-10-14T08:31:23.463Z,18.40
2022-10-14T08:33:50.823Z,18.40
2022-10-14T08:36:19.382Z,18.40
2022-10-14T08:38:47.004Z,18.50
2022-10-14T08:41:17.024Z,18.50
2022-10-14T08:43:52.171Z,18.50
2022-10-14T08:46:32.918Z,18.50
2022-10-14T08:49:08.552Z,18.50
2022-10-14T08:51:36.145Z,18.50
2022-10-14T08:54:11.071Z,18.60
2022-10-14T08:56:38.948Z,18.60
2022-10-14T08:59:12.851Z,18.60
2022-10-14T09:01:57.349Z,18.60
2022-10-14T09:04:24.533Z,18.60
2022-10-14T09:06:53.627Z,18.70
2022-10-14T09:09:44.795Z,18.70
2022-10-14T09:12:20.780Z,18.70
2022-10-14T09:15:08.958Z,18.80
2022-10-14T09:17:48.315Z,18.90
2022-10-14T09:20:20.312Z,19.00
2022-10-14T09:23:04.679Z,19.10
2022-10-14T09:25:35.333Z,19.20
2022-10-14T09:28:02.796Z,19.20
2022-10-14T09:30:36.875Z,19.30
2022-10-14T09:33:05.145Z,19.30
2022-10-14T09:35:42.281Z,19.30
2022-10-14T09:38:13.757Z,19.40
2022-10-14T09:40:45.794Z,19.40
2022-10-14T09:43:20.275Z,19.40
2022-10-14T09:46:08.100Z,19.50
2022-10-14T09:48:44.581Z,19.50
2022-10-14T09:51:25.711Z,19.50
2022-10-14T09:53:55.284Z,19.50
2022-10-14T09:56:38.918Z,19.60
2022-10-14T09:59:21.148Z,19.70
2022-10-14T10:02:00.333Z,19.70
2022-10-14T10:04:33.645Z,19.80
2022-10-14T10:07:05.714Z,19.80
2022-10-14T10:09:33.490Z,19.80
2022-10-14T10:12:00.708Z,19.80
2022-10-14T10:14:33.099Z,19.90
2022-10-14T10:17:12.820Z,19.90
2022-10-14T10:19:51.447Z,19.90
2022-10-14T10:22:27.296Z,20.00
2022-10-14T10:25:06.580Z,20.00
2022-10-14T10:27:41.311Z,20.00
2022-10-14T10:30:30.357Z,20.00
2022-10-14T10:33:29.501Z,20.00
2022-10-14T10:39:01.223Z,20.10
2022-10-14T10:41:49.844Z,20.20
2022-10-14T10:44:40.299Z,20.20
2022-10-14T10:47:24.799Z,20.30
2022-10-14T10:50:21.409Z,20.30
2022-10-14T10:53:01.283Z,20.40
2022-10-14T10:58:41.320Z,20.50
2022-10-14T11:01:43.554Z,20.50
2022-10-14T11:04:28.534Z,20.50
2022-10-14T11:07:33.115Z,20.60
2022-10-14T11:10:37.849Z,20.60
2022-10-14T11:13:29.302Z,20.60
2022-10-14T11:16:10.444Z,20.70
2022-10-14T11:19:13.847Z,20.70
2022-10-14T11:21:57.001Z,20.80
2022-10-14T11:24:42.279Z,20.80
2022-10-14T11:27:14.884Z,20.80
2022-10-14T11:29:49.056Z,20.90
2022-10-14T11:32:51.417Z,20.90
2022-10-14T11:35:38.096Z,20.90
2022-10-14T11:38:08.411Z,20.90
2022-10-14T11:40:42.891Z,20.90
2022-10-14T11:43:39.413Z,21.00
2022-10-14T11:46:13.625Z,21.00
2022-10-14T11:48:51.274Z,21.00
2022-10-14T11:51:35.964Z,21.00
2022-10-14T11:54:18.869Z,21.10
2022-10-14T11:56:56.747Z,21.10
2022-10-14T11:59:46.114Z,21.10
2022-10-14T12:02:49.044Z,21.20
2022-10-14T12:05:36.325Z,21.20
2022-10-14T12:08:41.204Z,21.20
2022-10-14T12:11:29.894Z,21.20
2022-10-14T12:14:20.060Z,21.20
2022-10-14T12:16:49.195Z,21.20
2022-10-14T12:19:26.593Z,21.20
2022-10-14T12:22:21.915Z,21.20
2022-10-14T12:24:55.184Z,21.30
2022-10-14T12:27:25.638Z,21.30
2022-10-14T12:29:55.697Z,21.30
2022-10-14T12:32:25.995Z,21.30
2022-10-14T12:34:57.652Z,21.30
2022-10-14T12:37:28.796Z,21.30
2022-10-14T12:40:07.487Z,21.30
2022-10-14T12:42:44.300Z,21.40
2022-10-14T12:45:19.225Z,21.40
2022-10-14T12:47:46.583Z,21.30
2022-10-14T12:50:29.606Z,21.30
2022-10-14T12:53:01.507Z,21.30
2022-10-14T12:55:33.306Z,21.30
2022-10-14T12:58:06.086Z,21.30
2022-10-14T13:00:40.615Z,21.30
2022-10-14T13:03:20.440Z,21.30
2022-10-14T13:05:48.140Z,21.30
2022-10-14T13:08:23.656Z,21.30
2022-10-14T13:11:02.320Z,21.30
2022-10-14T13:13:47.973Z,21.30
2022-10-14T13:16:24.079Z,21.30
2022-10-14T13:18:53.028Z,21.30
2022-10-14T13:21:26.188Z,21.30
2022-10-14T13:23:55.174Z,21.30
2022-10-14T13:26:42.509Z,21.20
2022-10-14T13:29:23.164Z,21.20
2022-10-14T13:32:17.405Z,21.30
2022-10-14T13:34:54.244Z,21.30
2022-10-14T13:37:44.793Z,21.30
2022-10-14T13:40:42.671Z,21.30
2022-10-14T13:43:29.433Z,21.30
2022-10-14T13:46:06.968Z,21.30
2022-10-14T13:48:42.978Z,21.30
2022-10-14T13:51:24.478Z,21.40
2022-10-14T13:54:20.367Z,21.30
2022-10-14T13:57:35.033Z,21.30
2022-10-14T14:00:22.534Z,21.40
2022-10-14T14:02:41.695Z,21.40
2022-10-14T14:05:15.952Z,21.40
2022-10-14T14:08:22.090Z,21.50
2022-10-14T14:10:32.081Z,21.50
2022-10-14T14:13:04.721Z,21.60
2022-10-14T14:15:32.383Z,21.70
2022-10-14T14:17:59.912Z,21.70
2022-10-14T14:20:29.230Z,21.80
2022-10-14T14:22:58.561Z,21.80
2022-10-14T14:25:43.010Z,21.90
2022-10-14T14:28:15.468Z,21.90
2022-10-14T14:30:54.308Z,22.00
2022-10-14T14:33:32.476Z,22.10
2022-10-14T14:36:04.639Z,22.10
2022-10-14T14:38:34.313Z,22.10
2022-10-14T14:41:07.170Z,22.10
2022-10-14T14:43:38.461Z,22.10
2022-10-14T14:46:17.353Z,22.00
2022-10-14T14:48:45.515Z,22.00
2022-10-14T14:51:14.295Z,21.90
2022-10-14T14:53:42.369Z,21.90
2022-10-14T14:56:18.948Z,21.80
2022-10-14T14:58:52.978Z,21.90
2022-10-14T15:01:29.601Z,21.80
2022-10-14T15:04:13.843Z,21.80
2022-10-14T15:07:01.786Z,21.90
2022-10-14T15:09:52.349Z,21.90
2022-10-14T15:12:23.167Z,21.90
2022-10-14T15:14:53.804Z,21.90
2022-10-14T15:17:41.847Z,22.00
2022-10-14T15:20:14.556Z,22.20
2022-10-14T15:22:43.641Z,22.20
2022-10-14T15:25:12.070Z,22.30
2022-10-14T15:27:46.701Z,22.40
2022-10-14T15:30:34.484Z,22.40
2022-10-14T15:33:18.097Z,22.40
2022-10-14T15:35:53.512Z,22.50
2022-10-14T15:38:20.753Z,22.50
2022-10-14T15:40:49.455Z,22.50
2022-10-14T15:43:26.611Z,22.50
2022-10-14T15:46:17.503Z,22.40
2022-10-14T15:48:54.984Z,22.40
2022-10-14T15:51:23.686Z,22.40
2022-10-14T15:53:51.920Z,22.40
2022-10-14T15:56:22.208Z,22.30
2022-10-14T15:58:49.649Z,22.30
2022-10-14T16:01:22.004Z,22.20
2022-10-14T16:03:52.242Z,22.10
2022-10-14T16:06:22.421Z,22.00
2022-10-14T16:08:49.603Z,21.90
2022-10-14T16:11:23.678Z,21.80
2022-10-14T16:13:50.769Z,21.70
2022-10-14T16:16:27.010Z,21.70
2022-10-14T16:18:54.244Z,21.60
2022-10-14T16:21:21.739Z,21.60
2022-10-14T16:23:48.916Z,21.50
2022-10-14T16:26:16.040Z,21.50
2022-10-14T16:28:43.104Z,21.50
2022-10-14T16:31:14.337Z,21.50
2022-10-14T16:33:44.777Z,21.40
2022-10-14T16:36:15.092Z,21.40
2022-10-14T16:38:42.322Z,21.30
2022-10-14T16:41:10.633Z,21.30
2022-10-14T16:43:37.713Z,21.30
2022-10-14T16:46:09.298Z,21.30
2022-10-14T16:48:38.991Z,21.20
2022-10-14T16:51:06.416Z,21.20
2022-10-14T16:53:44.806Z,21.20
2022-10-14T16:56:38.777Z,21.20
2022-10-14T16:59:07.678Z,21.10
2022-10-14T17:01:35.911Z,21.10
2022-10-14T17:04:04.050Z,21.10
2022-10-14T17:06:34.190Z,21.10
2022-10-14T17:09:01.309Z,21.00
2022-10-14T17:11:29.283Z,21.00
2022-10-14T17:13:59.770Z,21.00
2022-10-14T17:16:28.714Z,21.00
2022-10-14T17:18:56.963Z,21.00
2022-10-14T17:21:26.632Z,21.00
2022-10-14T17:23:54.217Z,20.90
2022-10-14T17:26:21.375Z,20.90
2022-10-14T17:28:48.870Z,20.90
2022-10-14T17:31:19.358Z,20.90
2022-10-14T17:33:46.755Z,20.90
2022-10-14T17:36:27.900Z,20.80
2022-10-14T17:38:57.168Z,20.80
2022-10-14T17:41:26.155Z,20.80
2022-10-14T17:43:54.356Z,20.80
2022-10-14T17:46:23.837Z,20.80
2022-10-14T17:48:57.085Z,20.80
2022-10-14T17:51:25.523Z,20.70
2022-10-14T17:53:58.416Z,20.70
2022-10-14T17:56:27.697Z,20.70
2022-10-14T17:58:57.011Z,20.70
2022-10-14T18:01:37.531Z,20.70
2022-10-14T18:04:11.250Z,20.70
2022-10-14T18:06:43.839Z,20.60
2022-10-14T18:09:12.030Z,20.60
2022-10-14T18:12:07.688Z,20.60
2022-10-14T18:14:30.233Z,20.60
2022-10-14T18:16:59.298Z,20.60
2022-10-14T18:19:27.181Z,20.50
2022-10-14T18:21:54.402Z,20.50
2022-10-14T18:24:21.490Z,20.50
2022-10-14T18:26:52.251Z,20.50
2022-10-14T18:29:19.448Z,20.50
2022-10-14T18:31:49.777Z,20.40
2022-10-14T18:34:17.087Z,20.40
2022-10-14T18:36:44.296Z,20.40
2022-10-14T18:39:13.123Z,20.40
2022-10-14T18:41:42.281Z,20.40
2022-10-14T18:44:09.608Z,20.40
2022-10-14T18:46:38.131Z,20.30
2022-10-14T18:49:07.473Z,20.30
2022-10-14T18:51:37.323Z,20.30
2022-10-14T18:54:07.887Z,20.30
2022-10-14T18:56:40.346Z,20.30
2022-10-14T18:59:13.949Z,20.20
2022-10-14T19:01:41.772Z,20.20
2022-10-14T19:04:14.095Z,20.20
2022-10-14T19:06:45.908Z,20.20
2022-10-14T19:09:13.666Z,20.20
2022-10-14T19:11:41.569Z,20.20
2022-10-14T19:14:09.913Z,20.20
2022-10-14T19:16:38.509Z,20.20
2022-10-14T19:19:15.124Z,20.20
2022-10-14T19:21:43.870Z,20.10
2022-10-14T19:24:13.015Z,20.10
2022-10-14T19:26:43.479Z,20.10
2022-10-14T19:29:13.672Z,20.10
2022-10-14T19:31:41.776Z,20.10
2022-10-14T19:34:11.898Z,20.10
2022-10-14T19:36:39.814Z,20.10
2022-10-14T19:39:09.255Z,20.00
2022-10-14T19:41:44.560Z,20.00
2022-10-14T19:44:14.172Z,19.90
2022-10-14T19:46:41.822Z,19.90
2022-10-14T19:49:12.731Z,19.90
2022-10-14T19:51:39.943Z,19.90
2022-10-14T19:54:07.438Z,19.90
2022-10-14T19:56:34.653Z,19.90
2022-10-14T19:59:01.884Z,19.90
2022-10-14T20:01:30.627Z,19.80
2022-10-14T20:04:00.668Z,19.80
2022-10-14T20:06:31.724Z,19.80
2022-10-14T20:09:02.513Z,19.80
2022-10-14T20:11:29.780Z,19.80
2022-10-14T20:13:57.379Z,19.80
2022-10-14T20:16:24.772Z,19.80
2022-10-14T20:18:52.412Z,19.70
2022-10-14T20:21:19.596Z,19.70
2022-10-14T20:23:46.654Z,19.60
2022-10-14T20:26:20.028Z,19.60
2022-10-14T20:28:48.206Z,19.60
2022-10-14T20:31:19.373Z,19.60
2022-10-14T20:33:47.927Z,19.60
2022-10-14T20:36:20.502Z,19.60
2022-10-14T20:38:48.883Z,19.50
2022-10-14T20:41:17.689Z,19.60
2022-10-14T20:43:45.605Z,19.50
2022-10-14T20:46:13.576Z,19.50
2022-10-14T20:48:40.747Z,19.50
2022-10-14T20:51:13.778Z,19.50
2022-10-14T20:56:13.608Z,19.40
2022-10-14T20:58:41.549Z,19.40
2022-10-14T21:01:17.712Z,19.40
2022-10-14T21:03:47.604Z,19.40
2022-10-14T21:06:20.152Z,19.40
2022-10-14T21:08:49.564Z,19.40
2022-10-14T21:11:18.594Z,19.40
2022-10-14T21:13:47.751Z,19.30
2022-10-14T21:16:21.957Z,19.30
2022-10-14T21:18:55.146Z,19.40
2022-10-14T21:21:25.708Z,19.40
2022-10-14T21:23:52.950Z,19.40
2022-10-14T21:26:20.020Z,19.40
2022-10-14T21:28:47.229Z,19.40
2022-10-14T21:31:18.770Z,19.40
2022-10-14T21:33:47.905Z,19.40
2022-10-14T21:36:16.975Z,19.40
2022-10-14T21:38:44.225Z,19.30
2022-10-14T21:41:12.682Z,19.30
2022-10-14T21:43:40.254Z,19.30
2022-10-14T21:46:10.371Z,19.20
2022-10-14T21:48:37.751Z,19.20
2022-10-14T21:51:18.272Z,19.20
2022-10-14T21:53:46.724Z,19.20
2022-10-14T21:56:15.568Z,19.20
2022-10-14T21:58:43.480Z,19.20
2022-10-14T22:01:16.958Z,19.10
2022-10-14T22:03:44.734Z,19.10
2022-10-14T22:06:16.448Z,19.20
2022-10-14T22:08:48.864Z,19.10
2022-10-14T22:11:22.530Z,19.10
2022-10-14T22:13:50.321Z,19.10
2022-10-14T22:16:18.449Z,19.10
2022-10-14T22:18:47.968Z,19.10
2022-10-14T22:21:16.805Z,19.10
2022-10-14T22:23:44.722Z,19.10
2022-10-14T22:26:14.003Z,19.10
2022-10-14T22:28:42.015Z,19.10
2022-10-14T22:31:11.944Z,19.10
2022-10-14T22:33:39.761Z,19.10
2022-10-14T22:36:12.938Z,19.10
2022-10-14T22:38:44.893Z,19.00
2022-10-14T22:41:14.166Z,19.00
2022-10-14T22:43:50.751Z,19.00
2022-10-14T22:46:20.470Z,19.00
2022-10-14T22:48:50.887Z,19.00
2022-10-14T22:51:20.114Z,19.00
2022-10-14T22:53:47.432Z,19.00
2022-10-14T22:56:22.542Z,19.00
2022-10-14T22:59:10.831Z,19.00
2022-10-14T23:01:39.570Z,19.00
2022-10-14T23:04:07.061Z,19.00
2022-10-14T23:06:34.914Z,19.00
2022-10-14T23:09:03.051Z,19.00
2022-10-14T23:11:31.427Z,18.90
2022-10-14T23:14:01.453Z,18.90
2022-10-14T23:16:31.856Z,18.90
2022-10-14T23:18:59.606Z,18.90
2022-10-14T23:21:35.199Z,18.90
2022-10-14T23:24:08.333Z,18.80
2022-10-14T23:26:36.662Z,18.80
2022-10-14T23:29:09.877Z,18.80
2022-10-14T23:31:38.430Z,18.80
2022-10-14T23:34:09.959Z,18.80
2022-10-14T23:36:37.026Z,18.80
2022-10-14T23:39:04.895Z,18.80
2022-10-14T23:41:31.946Z,18.80
2022-10-14T23:43:59.043Z,18.80
2022-10-14T23:46:26.365Z,18.80
2022-10-14T23:49:06.592Z,18.80
2022-10-14T23:51:34.266Z,18.80
2022-10-14T23:54:01.551Z,18.80
2022-10-14T23:56:28.542Z,18.70
2022-10-14T23:58:55.547Z,18.70
